createdAt,value
2022-10-13T00:04:23.601Z,17.00
2022-10-13T00:09:27.025Z,14.20
2022-10-13T00:14:32.081Z,15.50
2022-10-13T00:19:35.495Z,20.30
2022-10-13T00:24:39.115Z,21.80
2022-10-13T00:29:43.558Z,15.10
2022-10-13T00:34:46.976Z,18.90
2022-10-13T00:39:50.810Z,16.20
2022-10-13T00:45:01.693Z,17.00
2022-10-13T00:50:09.822Z,13.20
2022-10-13T00:55:17.758Z,13.80
2022-10-13T01:00:23.313Z,14.40
2022-10-13T01:05:26.728Z,15.40
2022-10-13T01:11:01.976Z,16.50
2022-10-13T01:16:36.599Z,18.70
2022-10-13T01:21:51.991Z,13.70
2022-10-13T01:27:04.519Z,13.20
2022-10-13T01:32:12.030Z,16.50
2022-10-13T01:37:47.505Z,14.20
2022-10-13T01:43:02.256Z,13.50
2022-10-13T01:48:07.324Z,13.90
2022-10-13T01:53:18.473Z,14.10
2022-10-13T01:58:25.282Z,13.10
2022-10-13T02:03:50.084Z,14.00
2022-10-13T02:09:15.631Z,14.20
2022-10-13T02:14:26.495Z,12.00
2022-10-13T02:19:33.724Z,13.00
2022-10-13T02:24:37.555Z,13.70
2022-10-13T02:29:59.397Z,12.50
2022-10-13T02:35:06.391Z,13.20
2022-10-13T02:40:11.006Z,12.00
2022-10-13T02:45:15.280Z,13.70
2022-10-13T02:50:19.003Z,14.80
2022-10-13T02:55:22.526Z,13.30
2022-10-13T03:00:31.071Z,11.80
2022-10-13T03:05:34.580Z,11.00
2022-10-13T03:10:38.385Z,12.90
2022-10-13T03:15:41.831Z,15.60
2022-10-13T03:20:45.242Z,14.60
2022-10-13T03:25:50.914Z,10.40
2022-10-13T03:31:08.609Z,10.10
2022-10-13T03:36:14.649Z,10.50
2022-10-13T03:41:22.862Z,10.00
2022-10-13T03:46:29.098Z,12.20
2022-10-13T03:51:36.559Z,13.50
2022-10-13T03:56:40.965Z,10.30
2022-10-13T04:01:45.486Z,16.10
2022-10-13T04:06:50.188Z,12.70
2022-10-13T04:11:54.419Z,12.40
2022-10-13T04:16:58.255Z,12.50
2022-10-13T04:22:01.776Z,9.00
2022-10-13T04:27:05.193Z,10.20
2022-10-13T04:32:08.511Z,10.20
2022-10-13T04:37:11.829Z,9.60
2022-10-13T04:42:15.246Z,12.10
2022-10-13T04:47:18.769Z,12.30
2022-10-13T04:52:22.480Z,10.50
2022-10-13T04:57:26.627Z,10.30
2022-10-13T05:02:30.050Z,11.80
2022-10-13T05:07:35.780Z,11.40
2022-10-13T05:12:39.138Z,13.10
2022-10-13T05:17:42.550Z,16.30
2022-10-13T05:22:45.967Z,12.30
2022-10-13T05:27:49.388Z,12.00
2022-10-13T05:32:53.933Z,10.70
2022-10-13T05:37:59.806Z,10.80
2022-10-13T05:43:04.451Z,15.00
2022-10-13T05:48:08.156Z,10.40
2022-10-13T05:53:11.802Z,12.30
2022-10-13T05:58:15.226Z,10.50
2022-10-13T06:03:22.832Z,8.70
2022-10-13T06:08:26.354Z,10.80
2022-10-13T06:13:29.666Z,9.10
2022-10-13T06:18:33.601Z,9.60
2022-10-13T06:23:37.019Z,9.50
2022-10-13T06:28:41.430Z,11.20
2022-10-13T06:33:46.107Z,10.10
2022-10-13T06:38:49.629Z,8.30
2022-10-13T06:43:54.683Z,9.70
2022-10-13T06:48:58.105Z,10.70
2022-10-13T06:54:02.717Z,17.40
2022-10-13T06:59:07.502Z,8.80
2022-10-13T07:04:11.837Z,10.30
2022-10-13T07:09:15.707Z,9.50
2022-10-13T07:14:19.290Z,11.90
2022-10-13T07:19:22.808Z,11.30
2022-10-13T07:24:26.739Z,11.30
2022-10-13T07:29:30.055Z,10.20
2022-10-13T07:34:33.684Z,9.80
2022-10-13T07:39:37.096Z,11.60
2022-10-13T07:44:40.625Z,22.90
2022-10-13T07:49:44.039Z,14.70
2022-10-13T07:54:47.460Z,13.20
2022-10-13T07:59:57.344Z,12.10
2022-10-13T08:05:01.152Z,14.30
2022-10-13T08:10:09.997Z,11.50
2022-10-13T08:15:14.433Z,12.30
2022-10-13T08:20:17.855Z,14.90
2022-10-13T08:25:21.269Z,10.60
2022-10-13T08:30:26.022Z,14.70
2022-10-13T08:35:34.080Z,12.70
2022-10-13T08:40:39.922Z,16.00
2022-10-13T08:45:46.327Z,14.00
2022-10-13T08:50:55.053Z,15.80
2022-10-13T08:56:05.564Z,18.60
2022-10-13T09:01:09.351Z,23.40
2022-10-13T09:06:32.006Z,17.90
2022-10-13T09:11:38.558Z,15.00
2022-10-13T09:16:45.397Z,21.90
2022-10-13T09:21:51.369Z,16.00
2022-10-13T09:27:13.861Z,18.40
2022-10-13T09:32:21.265Z,11.70
2022-10-13T09:37:26.496Z,13.60
2022-10-13T09:42:32.184Z,13.60
2022-10-13T09:47:39.412Z,12.00
2022-10-13T09:52:45.680Z,11.10
2022-10-13T09:57:51.760Z,9.80
2022-10-13T10:03:03.417Z,17.70
2022-10-13T10:08:57.916Z,10.70
2022-10-13T10:14:31.013Z,9.30
2022-10-13T10:19:46.715Z,13.20
2022-10-13T10:25:16.361Z,15.40
2022-10-13T10:30:23.492Z,13.80
2022-10-13T10:35:39.451Z,14.10
2022-10-13T10:41:08.851Z,12.50
2022-10-13T10:46:17.177Z,10.70
2022-10-13T10:51:32.327Z,11.00
2022-10-13T10:56:53.251Z,14.10
2022-10-13T11:01:59.668Z,14.40
2022-10-13T11:07:04.457Z,19.30
2022-10-13T11:12:20.245Z,19.40
2022-10-13T11:17:32.378Z,10.00
2022-10-13T11:22:40.390Z,14.00
2022-10-13T11:27:44.913Z,14.50
2022-10-13T11:32:57.233Z,10.50
2022-10-13T11:38:07.800Z,9.00
2022-10-13T11:43:20.540Z,9.20
2022-10-13T11:48:26.618Z,11.50
2022-10-13T11:53:51.628Z,9.80
2022-10-13T11:58:55.050Z,11.90
2022-10-13T12:03:58.464Z,14.60
2022-10-13T12:09:14.675Z,11.10
2022-10-13T12:14:26.223Z,12.10
2022-10-13T12:19:32.503Z,10.20
2022-10-13T12:24:38.660Z,12.40
2022-10-13T12:29:50.256Z,8.70
2022-10-13T12:34:54.080Z,7.80
2022-10-13T12:40:00.647Z,9.40
2022-10-13T12:45:05.339Z,16.40
2022-10-13T12:50:22.755Z,10.80
2022-10-13T12:55:28.437Z,10.80
2022-10-13T13:00:32.587Z,9.40
2022-10-13T13:05:47.918Z,8.80
2022-10-13T13:10:59.250Z,10.40
2022-10-13T13:16:16.487Z,8.40
2022-10-13T13:21:22.665Z,7.40
2022-10-13T13:26:26.995Z,10.40
2022-10-13T13:31:30.727Z,8.60
2022-10-13T13:36:34.349Z,7.40
2022-10-13T13:41:38.795Z,7.90
2022-10-13T13:46:46.669Z,14.20
2022-10-13T13:51:50.232Z,7.50
2022-10-13T13:56:58.609Z,6.90
2022-10-13T14:02:03.373Z,8.00
2022-10-13T14:07:07.140Z,7.70
2022-10-13T14:12:10.557Z,8.20
2022-10-13T14:17:19.967Z,7.10
2022-10-13T14:22:23.601Z,9.70
2022-10-13T14:27:28.079Z,8.50
2022-10-13T14:32:40.106Z,9.60
2022-10-13T14:37:43.511Z,8.70
2022-10-13T14:42:46.931Z,12.20
2022-10-13T14:47:53.936Z,8.20
2022-10-13T14:53:00.039Z,6.50
2022-10-13T14:58:04.455Z,8.80
2022-10-13T15:03:07.972Z,6.90
2022-10-13T15:08:11.519Z,9.20
2022-10-13T15:13:15.121Z,11.60
2022-10-13T15:18:33.323Z,9.10
2022-10-13T15:23:38.026Z,8.30
2022-10-13T15:28:45.800Z,12.70
2022-10-13T15:33:54.643Z,12.00
2022-10-13T15:39:00.149Z,11.90
2022-10-13T15:44:03.578Z,9.60
2022-10-13T15:49:17.067Z,11.90
2022-10-13T15:54:25.835Z,11.90
2022-10-13T15:59:31.148Z,29.90
2022-10-13T16:04:39.345Z,11.90
2022-10-13T16:09:42.761Z,17.00
2022-10-13T16:14:46.592Z,14.90
2022-10-13T16:19:53.906Z,13.40
2022-10-13T16:25:00.030Z,11.30
2022-10-13T16:30:05.855Z,13.90
2022-10-13T16:35:16.558Z,19.80
2022-10-13T16:40:28.109Z,16.20
2022-10-13T16:45:59.787Z,10.80
2022-10-13T16:51:25.865Z,10.20
2022-10-13T16:56:55.189Z,11.60
2022-10-13T17:02:06.135Z,9.60
2022-10-13T17:07:17.230Z,15.50
2022-10-13T17:12:27.912Z,16.20
2022-10-13T17:22:46.154Z,10.90
2022-10-13T17:27:59.103Z,10.00
2022-10-13T17:33:13.987Z,15.00
2022-10-13T17:38:38.340Z,15.60
2022-10-13T17:43:46.361Z,10.30
2022-10-13T17:48:52.610Z,19.20
2022-10-13T17:53:59.887Z,14.20
2022-10-13T17:59:15.596Z,15.20
2022-10-13T18:04:33.200Z,21.50
2022-10-13T18:09:37.312Z,21.00
2022-10-13T18:14:42.993Z,16.40
2022-10-13T18:19:55.537Z,22.80
2022-10-13T18:25:01.178Z,25.30
2022-10-13T18:30:10.007Z,15.20
2022-10-13T18:35:13.847Z,18.40
2022-10-13T18:40:17.367Z,16.40
2022-10-13T18:45:22.697Z,17.90
2022-10-13T18:50:26.147Z,16.30
2022-10-13T18:55:29.772Z,17.60
2022-10-13T19:00:33.245Z,23.80
2022-10-13T19:05:40.124Z,19.80
2022-10-13T19:10:46.584Z,19.90
2022-10-13T19:16:01.395Z,16.60
2022-10-13T19:21:09.595Z,18.60
2022-10-13T19:26:19.336Z,22.20
2022-10-13T19:31:25.888Z,26.90
2022-10-13T19:36:37.859Z,21.00
2022-10-13T19:41:47.203Z,23.90
2022-10-13T19:46:55.769Z,21.90
2022-10-13T19:51:59.363Z,23.00
2022-10-13T19:57:06.570Z,18.60
2022-10-13T20:02:19.304Z,27.60
2022-10-13T20:07:26.158Z,18.70
2022-10-13T20:12:32.682Z,21.90
2022-10-13T20:17:36.627Z,21.00
2022-10-13T20:22:42.812Z,20.50
2022-10-13T20:27:47.952Z,18.10
2022-10-13T20:32:54.514Z,22.90
2022-10-13T20:37:59.496Z,20.60
2022-10-13T20:43:11.312Z,18.20
2022-10-13T20:48:14.738Z,24.40
2022-10-13T20:53:26.384Z,21.60
2022-10-13T20:58:52.367Z,17.90
2022-10-13T21:03:56.297Z,22.10
2022-10-13T21:08:59.919Z,21.40
2022-10-13T21:14:07.342Z,21.90
2022-10-13T21:19:13.201Z,17.30
2022-10-13T21:24:18.671Z,19.00
2022-10-13T21:29:31.294Z,21.30
2022-10-13T21:34:34.824Z,18.60
2022-10-13T21:39:38.545Z,15.70
2022-10-13T21:44:45.147Z,17.60
2022-10-13T21:49:53.779Z,16.20
2022-10-13T21:54:59.966Z,17.50
2022-10-13T22:00:09.230Z,16.70
2022-10-13T22:05:18.315Z,20.20
2022-10-13T22:10:24.545Z,17.60
2022-10-13T22:15:28.051Z,13.40
2022-10-13T22:20:37.749Z,18.00
2022-10-13T22:25:46.188Z,16.70
2022-10-13T22:31:03.077Z,15.90
2022-10-13T22:36:27.911Z,19.00
2022-10-13T22:41:41.019Z,17.30
2022-10-13T22:46:49.858Z,15.30
2022-10-13T22:51:53.588Z,17.00
2022-10-13T22:56:57.007Z,16.80
2022-10-13T23:02:00.526Z,17.40
2022-10-13T23:07:04.868Z,16.60
2022-10-13T23:12:08.284Z,18.00
2022-10-13T23:17:12.215Z,15.70
2022-10-13T23:22:15.838Z,15.90
2022-10-13T23:27:20.020Z,21.30
2022-10-13T23:32:23.803Z,14.20
2022-10-13T23:37:27.936Z,24.30
2022-10-13T23:42:31.503Z,23.10
2022-10-13T23:47:35.081Z,20.40
2022-10-13T23:52:38.502Z,16.00
2022-10-13T23:57:46.846Z,16.80
